sensor_id;sensor_type;location;lat;lon;timestamp;P1;durP1;ratioP1;P2;durP2;ratioP2
47958;SDS011;33718;50.910;-1.514;2023-04-25T00:01:08;444.70;;;111.90;;
47958;SDS011;33718;50.910;-1.514;2023-04-25T00:03:12;442.95;;;115.50;;
47958;SDS011;33718;50.910;-1.514;2023-04-25T00:05:20;449.40;;;110.17;;
47958;SDS011;33718;50.910;-1.514;2023-04-25T00:07:26;437.93;;;110.63;;
47958;SDS011;33718;50.910;-1.514;2023-04-25T00:09:33;438.87;;;105.97;;
47958;SDS011;33718;50.910;-1.514;2023-04-25T00:11:37;436.67;;;110.03;;
47958;SDS011;33718;50.910;-1.514;2023-04-25T00:13:43;443.23;;;112.90;;
47958;SDS011;33718;50.910;-1.514;2023-04-25T00:15:52;438.53;;;111.63;;
47958;SDS011;33718;50.910;-1.514;2023-04-25T00:17:54;440.57;;;107.20;;
47958;SDS011;33718;50.910;-1.514;2023-04-25T00:19:55;435.73;;;107.23;;
47958;SDS011;33718;50.910;-1.514;2023-04-25T00:22:00;441.10;;;112.70;;
47958;SDS011;33718;50.910;-1.514;2023-04-25T00:24:02;442.10;;;113.37;;
47958;SDS011;33718;50.910;-1.514;2023-04-25T00:26:03;445.63;;;111.97;;
47958;SDS011;33718;50.910;-1.514;2023-04-25T00:28:23;442.53;;;107.17;;
47958;SDS011;33718;50.910;-1.514;2023-04-25T00:30:43;438.00;;;104.03;;
47958;SDS011;33718;50.910;-1.514;2023-04-25T00:32:47;441.83;;;105.35;;
47958;SDS011;33718;50.910;-1.514;2023-04-25T00:35:09;448.23;;;110.87;;
47958;SDS011;33718;50.910;-1.514;2023-04-25T00:37:11;439.63;;;105.83;;
47958;SDS011;33718;50.910;-1.514;2023-04-25T00:39:12;442.83;;;104.50;;
47958;SDS011;33718;50.910;-1.514;2023-04-25T00:41:17;442.40;;;108.03;;
47958;SDS011;33718;50.910;-1.514;2023-04-25T00:43:23;438.57;;;105.63;;
47958;SDS011;33718;50.910;-1.514;2023-04-25T00:45:27;438.33;;;106.60;;
47958;SDS011;33718;50.910;-1.514;2023-04-25T00:47:31;445.80;;;107.83;;
47958;SDS011;33718;50.910;-1.514;2023-04-25T00:49:36;437.50;;;103.63;;
47958;SDS011;33718;50.910;-1.514;2023-04-25T00:51:41;433.90;;;100.10;;
47958;SDS011;33718;50.910;-1.514;2023-04-25T00:53:42;437.37;;;103.37;;
47958;SDS011;33718;50.910;-1.514;2023-04-25T00:55:44;441.57;;;102.13;;
47958;SDS011;33718;50.910;-1.514;2023-04-25T00:57:45;434.23;;;104.23;;
47958;SDS011;33718;50.910;-1.514;2023-04-25T00:59:48;435.57;;;100.10;;
47958;SDS011;33718;50.910;-1.514;2023-04-25T01:01:52;435.98;;;101.15;;
47958;SDS011;33718;50.910;-1.514;2023-04-25T01:06:01;432.98;;;98.63;;
47958;SDS011;33718;50.910;-1.514;2023-04-25T01:08:05;443.43;;;98.40;;
47958;SDS011;33718;50.910;-1.514;2023-04-25T01:10:09;441.87;;;99.43;;
47958;SDS011;33718;50.910;-1.514;2023-04-25T01:12:11;436.43;;;99.60;;
47958;SDS011;33718;50.910;-1.514;2023-04-25T01:14:13;441.80;;;102.90;;
47958;SDS011;33718;50.910;-1.514;2023-04-25T01:18:19;439.13;;;96.87;;
47958;SDS011;33718;50.910;-1.514;2023-04-25T01:20:24;439.50;;;100.97;;
47958;SDS011;33718;50.910;-1.514;2023-04-25T01:22:26;441.23;;;99.73;;
47958;SDS011;33718;50.910;-1.514;2023-04-25T01:24:27;444.63;;;99.90;;
47958;SDS011;33718;50.910;-1.514;2023-04-25T01:28:36;439.10;;;101.22;;
47958;SDS011;33718;50.910;-1.514;2023-04-25T01:30:41;439.20;;;101.57;;
47958;SDS011;33718;50.910;-1.514;2023-04-25T01:33:01;439.33;;;98.87;;
47958;SDS011;33718;50.910;-1.514;2023-04-25T01:35:07;442.90;;;105.57;;
47958;SDS011;33718;50.910;-1.514;2023-04-25T01:37:10;449.25;;;105.07;;
47958;SDS011;33718;50.910;-1.514;2023-04-25T01:39:15;461.13;;;106.90;;
47958;SDS011;33718;50.910;-1.514;2023-04-25T01:41:16;462.30;;;111.10;;
47958;SDS011;33718;50.910;-1.514;2023-04-25T01:43:21;459.70;;;108.03;;
47958;SDS011;33718;50.910;-1.514;2023-04-25T01:47:30;454.92;;;102.78;;
47958;SDS011;33718;50.910;-1.514;2023-04-25T01:49:33;443.65;;;102.10;;
47958;SDS011;33718;50.910;-1.514;2023-04-25T01:51:53;455.63;;;103.57;;
47958;SDS011;33718;50.910;-1.514;2023-04-25T01:53:55;443.77;;;101.93;;
47958;SDS011;33718;50.910;-1.514;2023-04-25T01:56:18;459.43;;;106.10;;
47958;SDS011;33718;50.910;-1.514;2023-04-25T01:58:19;460.60;;;109.80;;
47958;SDS011;33718;50.910;-1.514;2023-04-25T02:00:21;462.67;;;111.07;;
47958;SDS011;33718;50.910;-1.514;2023-04-25T02:02:25;470.03;;;116.27;;
47958;SDS011;33718;50.910;-1.514;2023-04-25T02:04:30;462.63;;;113.07;;
47958;SDS011;33718;50.910;-1.514;2023-04-25T02:06:35;458.50;;;109.00;;
47958;SDS011;33718;50.910;-1.514;2023-04-25T02:08:36;453.10;;;103.47;;
47958;SDS011;33718;50.910;-1.514;2023-04-25T02:10:38;444.07;;;104.13;;
47958;SDS011;33718;50.910;-1.514;2023-04-25T02:12:40;442.67;;;101.40;;
47958;SDS011;33718;50.910;-1.514;2023-04-25T02:14:45;443.60;;;99.40;;
47958;SDS011;33718;50.910;-1.514;2023-04-25T02:16:46;440.50;;;98.53;;
47958;SDS011;33718;50.910;-1.514;2023-04-25T02:18:50;434.07;;;96.77;;
47958;SDS011;33718;50.910;-1.514;2023-04-25T02:20:58;437.53;;;96.20;;
47958;SDS011;33718;50.910;-1.514;2023-04-25T02:23:02;433.83;;;95.00;;
47958;SDS011;33718;50.910;-1.514;2023-04-25T02:25:06;431.47;;;94.03;;
47958;SDS011;33718;50.910;-1.514;2023-04-25T02:27:26;431.63;;;94.53;;
47958;SDS011;33718;50.910;-1.514;2023-04-25T02:31:32;428.03;;;92.07;;
47958;SDS011;33718;50.910;-1.514;2023-04-25T02:35:40;429.73;;;90.15;;
47958;SDS011;33718;50.910;-1.514;2023-04-25T02:37:42;445.60;;;97.33;;
47958;SDS011;33718;50.910;-1.514;2023-04-25T02:40:03;443.10;;;96.37;;
47958;SDS011;33718;50.910;-1.514;2023-04-25T02:42:10;434.77;;;93.30;;
47958;SDS011;33718;50.910;-1.514;2023-04-25T02:44:15;436.73;;;93.67;;
47958;SDS011;33718;50.910;-1.514;2023-04-25T02:46:25;443.20;;;95.30;;
47958;SDS011;33718;50.910;-1.514;2023-04-25T02:48:47;431.40;;;92.63;;
47958;SDS011;33718;50.910;-1.514;2023-04-25T02:51:04;435.23;;;92.80;;
47958;SDS011;33718;50.910;-1.514;2023-04-25T02:53:21;441.70;;;93.83;;
47958;SDS011;33718;50.910;-1.514;2023-04-25T02:55:36;435.60;;;92.47;;
47958;SDS011;33718;50.910;-1.514;2023-04-25T02:57:48;432.50;;;94.13;;
47958;SDS011;33718;50.910;-1.514;2023-04-25T03:00:19;436.00;;;92.83;;
47958;SDS011;33718;50.910;-1.514;2023-04-25T03:02:34;441.93;;;94.57;;
47958;SDS011;33718;50.910;-1.514;2023-04-25T03:04:49;436.23;;;91.35;;
47958;SDS011;33718;50.910;-1.514;2023-04-25T03:07:05;434.93;;;91.53;;
47958;SDS011;33718;50.910;-1.514;2023-04-25T03:09:21;430.17;;;90.07;;
47958;SDS011;33718;50.910;-1.514;2023-04-25T03:11:33;425.33;;;88.40;;
47958;SDS011;33718;50.910;-1.514;2023-04-25T03:13:46;423.17;;;87.07;;
47958;SDS011;33718;50.910;-1.514;2023-04-25T03:15:56;423.17;;;86.57;;
47958;SDS011;33718;50.910;-1.514;2023-04-25T03:18:08;416.70;;;84.47;;
47958;SDS011;33718;50.910;-1.514;2023-04-25T03:20:19;415.33;;;84.50;;
47958;SDS011;33718;50.910;-1.514;2023-04-25T03:22:24;417.53;;;85.57;;
47958;SDS011;33718;50.910;-1.514;2023-04-25T03:24:28;427.85;;;85.63;;
47958;SDS011;33718;50.910;-1.514;2023-04-25T03:26:32;417.70;;;86.80;;
47958;SDS011;33718;50.910;-1.514;2023-04-25T03:28:37;424.67;;;84.50;;
47958;SDS011;33718;50.910;-1.514;2023-04-25T03:30:39;413.87;;;84.80;;
47958;SDS011;33718;50.910;-1.514;2023-04-25T03:32:43;414.83;;;85.40;;
47958;SDS011;33718;50.910;-1.514;2023-04-25T03:34:47;417.87;;;84.57;;
47958;SDS011;33718;50.910;-1.514;2023-04-25T03:36:49;417.00;;;84.53;;
47958;SDS011;33718;50.910;-1.514;2023-04-25T03:38:50;420.47;;;86.47;;
47958;SDS011;33718;50.910;-1.514;2023-04-25T03:40:52;415.33;;;85.90;;
47958;SDS011;33718;50.910;-1.514;2023-04-25T03:42:57;427.03;;;87.63;;
47958;SDS011;33718;50.910;-1.514;2023-04-25T03:45:01;414.40;;;83.70;;
47958;SDS011;33718;50.910;-1.514;2023-04-25T03:47:05;125.45;;;27.75;;
47958;SDS011;33718;50.910;-1.514;2023-04-25T03:51:11;18.70;;;7.13;;
47958;SDS011;33718;50.910;-1.514;2023-04-25T03:53:15;21.05;;;8.52;;
47958;SDS011;33718;50.910;-1.514;2023-04-25T03:55:17;21.27;;;7.97;;
47958;SDS011;33718;50.910;-1.514;2023-04-25T03:57:18;22.35;;;8.13;;
47958;SDS011;33718;50.910;-1.514;2023-04-25T03:59:20;21.13;;;7.55;;
47958;SDS011;33718;50.910;-1.514;2023-04-25T04:01:21;23.15;;;7.07;;
47958;SDS011;33718;50.910;-1.514;2023-04-25T04:03:26;20.30;;;7.15;;
47958;SDS011;33718;50.910;-1.514;2023-04-25T04:07:32;22.90;;;7.10;;
47958;SDS011;33718;50.910;-1.514;2023-04-25T04:09:34;20.98;;;6.43;;
47958;SDS011;33718;50.910;-1.514;2023-04-25T04:11:36;21.38;;;7.85;;
47958;SDS011;33718;50.910;-1.514;2023-04-25T04:13:39;24.63;;;7.78;;
47958;SDS011;33718;50.910;-1.514;2023-04-25T04:15:44;16.35;;;7.97;;
47958;SDS011;33718;50.910;-1.514;2023-04-25T04:17:45;14.45;;;6.55;;
47958;SDS011;33718;50.910;-1.514;2023-04-25T04:19:51;15.98;;;6.57;;
47958;SDS011;33718;50.910;-1.514;2023-04-25T04:21:52;17.65;;;6.70;;
47958;SDS011;33718;50.910;-1.514;2023-04-25T04:23:54;9.77;;;5.80;;
47958;SDS011;33718;50.910;-1.514;2023-04-25T04:25:55;14.52;;;5.97;;
47958;SDS011;33718;50.910;-1.514;2023-04-25T04:27:57;15.85;;;6.35;;
47958;SDS011;33718;50.910;-1.514;2023-04-25T04:30:03;15.10;;;5.95;;
47958;SDS011;33718;50.910;-1.514;2023-04-25T04:34:12;17.83;;;6.40;;
47958;SDS011;33718;50.910;-1.514;2023-04-25T04:36:14;14.73;;;6.05;;
47958;SDS011;33718;50.910;-1.514;2023-04-25T04:38:35;17.90;;;5.45;;
47958;SDS011;33718;50.910;-1.514;2023-04-25T04:40:42;8.85;;;5.55;;
47958;SDS011;33718;50.910;-1.514;2023-04-25T04:42:50;20.52;;;6.05;;
47958;SDS011;33718;50.910;-1.514;2023-04-25T04:44:51;14.10;;;5.80;;
47958;SDS011;33718;50.910;-1.514;2023-04-25T04:46:55;21.70;;;5.97;;
47958;SDS011;33718;50.910;-1.514;2023-04-25T04:49:16;10.45;;;5.85;;
47958;SDS011;33718;50.910;-1.514;2023-04-25T04:51:18;17.58;;;7.05;;
47958;SDS011;33718;50.910;-1.514;2023-04-25T04:53:23;13.93;;;5.70;;
47958;SDS011;33718;50.910;-1.514;2023-04-25T04:55:24;17.33;;;5.90;;
47958;SDS011;33718;50.910;-1.514;2023-04-25T04:57:27;18.52;;;5.93;;
47958;SDS011;33718;50.910;-1.514;2023-04-25T04:59:28;17.80;;;5.95;;
47958;SDS011;33718;50.910;-1.514;2023-04-25T05:01:33;21.63;;;5.72;;
47958;SDS011;33718;50.910;-1.514;2023-04-25T05:03:40;14.25;;;6.20;;
47958;SDS011;33718;50.910;-1.514;2023-04-25T05:05:44;21.10;;;6.68;;
47958;SDS011;33718;50.910;-1.514;2023-04-25T05:07:50;19.10;;;7.35;;
47958;SDS011;33718;50.910;-1.514;2023-04-25T05:09:54;19.92;;;8.65;;
47958;SDS011;33718;50.910;-1.514;2023-04-25T05:11:58;43.55;;;10.50;;
47958;SDS011;33718;50.910;-1.514;2023-04-25T05:14:03;39.58;;;10.63;;
47958;SDS011;33718;50.910;-1.514;2023-04-25T05:16:04;57.90;;;16.13;;
47958;SDS011;33718;50.910;-1.514;2023-04-25T05:18:09;42.28;;;14.85;;
47958;SDS011;33718;50.910;-1.514;2023-04-25T05:20:11;50.72;;;13.18;;
47958;SDS011;33718;50.910;-1.514;2023-04-25T05:22:13;47.92;;;13.63;;
47958;SDS011;33718;50.910;-1.514;2023-04-25T05:26:21;41.58;;;13.35;;
47958;SDS011;33718;50.910;-1.514;2023-04-25T05:28:41;49.30;;;16.63;;
47958;SDS011;33718;50.910;-1.514;2023-04-25T05:30:46;75.95;;;22.73;;
47958;SDS011;33718;50.910;-1.514;2023-04-25T05:32:50;121.88;;;29.52;;
47958;SDS011;33718;50.910;-1.514;2023-04-25T05:34:52;123.47;;;27.42;;
47958;SDS011;33718;50.910;-1.514;2023-04-25T05:36:53;71.45;;;23.13;;
47958;SDS011;33718;50.910;-1.514;2023-04-25T05:38:55;73.85;;;19.77;;
47958;SDS011;33718;50.910;-1.514;2023-04-25T05:41:15;69.13;;;18.98;;
47958;SDS011;33718;50.910;-1.514;2023-04-25T05:43:19;55.90;;;15.68;;
47958;SDS011;33718;50.910;-1.514;2023-04-25T05:45:24;80.25;;;19.63;;
47958;SDS011;33718;50.910;-1.514;2023-04-25T05:47:30;74.30;;;17.35;;
47958;SDS011;33718;50.910;-1.514;2023-04-25T05:49:38;82.10;;;19.10;;
47958;SDS011;33718;50.910;-1.514;2023-04-25T05:51:55;66.18;;;18.05;;
47958;SDS011;33718;50.910;-1.514;2023-04-25T05:54:05;72.82;;;17.65;;
47958;SDS011;33718;50.910;-1.514;2023-04-25T05:56:21;48.70;;;14.05;;
47958;SDS011;33718;50.910;-1.514;2023-04-25T05:58:37;42.58;;;12.98;;
47958;SDS011;33718;50.910;-1.514;2023-04-25T06:00:55;32.30;;;10.77;;
47958;SDS011;33718;50.910;-1.514;2023-04-25T06:03:07;22.88;;;8.18;;
47958;SDS011;33718;50.910;-1.514;2023-04-25T06:05:25;27.77;;;8.52;;
47958;SDS011;33718;50.910;-1.514;2023-04-25T06:07:36;20.10;;;6.63;;
47958;SDS011;33718;50.910;-1.514;2023-04-25T06:10:06;11.68;;;5.85;;
47958;SDS011;33718;50.910;-1.514;2023-04-25T06:12:21;23.77;;;7.20;;
47958;SDS011;33718;50.910;-1.514;2023-04-25T06:16:49;23.00;;;6.70;;
47958;SDS011;33718;50.910;-1.514;2023-04-25T06:19:02;14.43;;;5.57;;
47958;SDS011;33718;50.910;-1.514;2023-04-25T06:21:30;22.75;;;5.32;;
47958;SDS011;33718;50.910;-1.514;2023-04-25T06:23:44;12.73;;;4.97;;
47958;SDS011;33718;50.910;-1.514;2023-04-25T06:25:55;18.73;;;4.80;;
47958;SDS011;33718;50.910;-1.514;2023-04-25T06:27:59;14.27;;;3.67;;
47958;SDS011;33718;50.910;-1.514;2023-04-25T06:30:07;13.18;;;3.58;;
47958;SDS011;33718;50.910;-1.514;2023-04-25T06:32:08;8.60;;;3.50;;
47958;SDS011;33718;50.910;-1.514;2023-04-25T06:34:10;13.82;;;2.80;;
47958;SDS011;33718;50.910;-1.514;2023-04-25T06:36:12;13.93;;;2.78;;
47958;SDS011;33718;50.910;-1.514;2023-04-25T06:38:16;8.10;;;2.55;;
47958;SDS011;33718;50.910;-1.514;2023-04-25T06:40:17;6.88;;;2.00;;
47958;SDS011;33718;50.910;-1.514;2023-04-25T06:42:22;7.75;;;2.40;;
47958;SDS011;33718;50.910;-1.514;2023-04-25T06:44:26;6.95;;;1.95;;
47958;SDS011;33718;50.910;-1.514;2023-04-25T06:46:33;10.77;;;2.40;;
47958;SDS011;33718;50.910;-1.514;2023-04-25T06:48:35;13.05;;;2.75;;
47958;SDS011;33718;50.910;-1.514;2023-04-25T06:50:39;8.02;;;2.40;;
47958;SDS011;33718;50.910;-1.514;2023-04-25T06:52:43;8.70;;;2.35;;
47958;SDS011;33718;50.910;-1.514;2023-04-25T06:54:48;10.85;;;2.25;;
47958;SDS011;33718;50.910;-1.514;2023-04-25T06:56:49;5.93;;;2.05;;
47958;SDS011;33718;50.910;-1.514;2023-04-25T06:58:53;9.68;;;2.40;;
47958;SDS011;33718;50.910;-1.514;2023-04-25T07:00:57;11.13;;;2.50;;
47958;SDS011;33718;50.910;-1.514;2023-04-25T07:03:18;14.23;;;3.08;;
47958;SDS011;33718;50.910;-1.514;2023-04-25T07:05:20;10.63;;;2.83;;
47958;SDS011;33718;50.910;-1.514;2023-04-25T07:07:22;9.57;;;2.60;;
47958;SDS011;33718;50.910;-1.514;2023-04-25T07:09:23;9.00;;;2.25;;
47958;SDS011;33718;50.910;-1.514;2023-04-25T07:11:28;9.40;;;3.28;;
47958;SDS011;33718;50.910;-1.514;2023-04-25T07:13:32;8.00;;;2.60;;
47958;SDS011;33718;50.910;-1.514;2023-04-25T07:15:52;7.57;;;2.25;;
47958;SDS011;33718;50.910;-1.514;2023-04-25T07:17:57;12.85;;;2.45;;
47958;SDS011;33718;50.910;-1.514;2023-04-25T07:20:01;7.40;;;2.20;;
47958;SDS011;33718;50.910;-1.514;2023-04-25T07:22:07;7.35;;;2.70;;
47958;SDS011;33718;50.910;-1.514;2023-04-25T07:24:11;9.23;;;2.25;;
47958;SDS011;33718;50.910;-1.514;2023-04-25T07:26:13;9.40;;;2.28;;
47958;SDS011;33718;50.910;-1.514;2023-04-25T07:28:17;7.72;;;2.17;;
47958;SDS011;33718;50.910;-1.514;2023-04-25T07:30:22;7.15;;;2.28;;
47958;SDS011;33718;50.910;-1.514;2023-04-25T07:32:24;9.95;;;2.33;;
47958;SDS011;33718;50.910;-1.514;2023-04-25T07:34:26;11.50;;;2.63;;
47958;SDS011;33718;50.910;-1.514;2023-04-25T07:36:30;7.38;;;1.63;;
47958;SDS011;33718;50.910;-1.514;2023-04-25T07:38:32;11.88;;;2.28;;
47958;SDS011;33718;50.910;-1.514;2023-04-25T07:40:36;6.00;;;1.80;;
47958;SDS011;33718;50.910;-1.514;2023-04-25T07:42:41;7.45;;;2.15;;
47958;SDS011;33718;50.910;-1.514;2023-04-25T07:44:43;9.23;;;2.35;;
47958;SDS011;33718;50.910;-1.514;2023-04-25T07:46:47;8.60;;;1.83;;
47958;SDS011;33718;50.910;-1.514;2023-04-25T07:48:51;6.65;;;2.15;;
47958;SDS011;33718;50.910;-1.514;2023-04-25T07:50:56;8.27;;;2.38;;
47958;SDS011;33718;50.910;-1.514;2023-04-25T07:53:00;9.02;;;1.83;;
47958;SDS011;33718;50.910;-1.514;2023-04-25T07:55:05;9.77;;;2.13;;
47958;SDS011;33718;50.910;-1.514;2023-04-25T07:57:06;8.85;;;1.75;;
47958;SDS011;33718;50.910;-1.514;2023-04-25T07:59:08;6.68;;;1.83;;
47958;SDS011;33718;50.910;-1.514;2023-04-25T08:01:12;7.20;;;1.77;;
47958;SDS011;33718;50.910;-1.514;2023-04-25T08:03:16;6.32;;;1.55;;
47958;SDS011;33718;50.910;-1.514;2023-04-25T08:05:18;5.25;;;1.10;;
47958;SDS011;33718;50.910;-1.514;2023-04-25T08:07:25;7.30;;;1.73;;
47958;SDS011;33718;50.910;-1.514;2023-04-25T08:09:46;4.82;;;1.58;;
47958;SDS011;33718;50.910;-1.514;2023-04-25T08:11:50;6.53;;;1.58;;
47958;SDS011;33718;50.910;-1.514;2023-04-25T08:13:55;6.57;;;1.65;;
47958;SDS011;33718;50.910;-1.514;2023-04-25T08:15:56;4.32;;;1.42;;
47958;SDS011;33718;50.910;-1.514;2023-04-25T08:17:58;9.82;;;1.42;;
47958;SDS011;33718;50.910;-1.514;2023-04-25T08:20:00;12.43;;;2.30;;
47958;SDS011;33718;50.910;-1.514;2023-04-25T08:22:05;5.05;;;1.35;;
47958;SDS011;33718;50.910;-1.514;2023-04-25T08:24:07;4.30;;;1.13;;
47958;SDS011;33718;50.910;-1.514;2023-04-25T08:26:08;4.05;;;0.80;;
47958;SDS011;33718;50.910;-1.514;2023-04-25T08:28:13;8.38;;;1.40;;
47958;SDS011;33718;50.910;-1.514;2023-04-25T08:30:17;4.57;;;1.08;;
47958;SDS011;33718;50.910;-1.514;2023-04-25T08:32:19;6.32;;;1.30;;
47958;SDS011;33718;50.910;-1.514;2023-04-25T08:34:22;5.20;;;1.90;;
47958;SDS011;33718;50.910;-1.514;2023-04-25T08:36:26;4.63;;;1.38;;
47958;SDS011;33718;50.910;-1.514;2023-04-25T08:38:42;7.55;;;2.03;;
47958;SDS011;33718;50.910;-1.514;2023-04-25T08:41:02;5.20;;;1.20;;
47958;SDS011;33718;50.910;-1.514;2023-04-25T08:43:07;7.40;;;1.70;;
47958;SDS011;33718;50.910;-1.514;2023-04-25T08:45:16;2.80;;;0.93;;
47958;SDS011;33718;50.910;-1.514;2023-04-25T08:47:18;7.50;;;1.60;;
47958;SDS011;33718;50.910;-1.514;2023-04-25T08:49:25;8.48;;;1.75;;
47958;SDS011;33718;50.910;-1.514;2023-04-25T08:51:31;3.40;;;1.83;;
47958;SDS011;33718;50.910;-1.514;2023-04-25T08:53:33;3.38;;;1.00;;
47958;SDS011;33718;50.910;-1.514;2023-04-25T08:55:37;5.38;;;1.60;;
47958;SDS011;33718;50.910;-1.514;2023-04-25T08:57:41;5.15;;;0.98;;
47958;SDS011;33718;50.910;-1.514;2023-04-25T08:59:51;3.53;;;1.45;;
47958;SDS011;33718;50.910;-1.514;2023-04-25T09:01:57;5.95;;;1.45;;
47958;SDS011;33718;50.910;-1.514;2023-04-25T09:04:01;4.65;;;0.98;;
47958;SDS011;33718;50.910;-1.514;2023-04-25T09:06:04;4.05;;;1.05;;
47958;SDS011;33718;50.910;-1.514;2023-04-25T09:08:07;5.10;;;1.38;;
47958;SDS011;33718;50.910;-1.514;2023-04-25T09:10:15;8.27;;;1.02;;
47958;SDS011;33718;50.910;-1.514;2023-04-25T09:12:23;4.25;;;1.17;;
47958;SDS011;33718;50.910;-1.514;2023-04-25T09:14:29;4.03;;;1.00;;
47958;SDS011;33718;50.910;-1.514;2023-04-25T09:16:32;8.18;;;1.27;;
47958;SDS011;33718;50.910;-1.514;2023-04-25T09:18:40;5.97;;;1.10;;
47958;SDS011;33718;50.910;-1.514;2023-04-25T09:20:49;4.13;;;1.42;;
47958;SDS011;33718;50.910;-1.514;2023-04-25T09:23:02;3.75;;;1.50;;
47958;SDS011;33718;50.910;-1.514;2023-04-25T09:25:12;5.18;;;1.27;;
47958;SDS011;33718;50.910;-1.514;2023-04-25T09:27:21;5.78;;;1.42;;
47958;SDS011;33718;50.910;-1.514;2023-04-25T09:29:33;4.85;;;1.15;;
47958;SDS011;33718;50.910;-1.514;2023-04-25T09:31:39;6.28;;;1.27;;
47958;SDS011;33718;50.910;-1.514;2023-04-25T09:33:40;2.83;;;1.15;;
47958;SDS011;33718;50.910;-1.514;2023-04-25T09:35:42;8.43;;;1.20;;
47958;SDS011;33718;50.910;-1.514;2023-04-25T09:37:50;6.60;;;1.20;;
47958;SDS011;33718;50.910;-1.514;2023-04-25T09:40:11;3.55;;;1.00;;
47958;SDS011;33718;50.910;-1.514;2023-04-25T09:42:14;5.97;;;1.67;;
47958;SDS011;33718;50.910;-1.514;2023-04-25T09:46:18;6.38;;;1.35;;
47958;SDS011;33718;50.910;-1.514;2023-04-25T09:48:26;1.77;;;0.70;;
47958;SDS011;33718;50.910;-1.514;2023-04-25T09:51:19;3.53;;;0.80;;
47958;SDS011;33718;50.910;-1.514;2023-04-25T09:53:17;3.25;;;0.60;;
47958;SDS011;33718;50.910;-1.514;2023-04-25T09:55:22;3.72;;;0.65;;
47958;SDS011;33718;50.910;-1.514;2023-04-25T09:57:23;2.17;;;1.17;;
47958;SDS011;33718;50.910;-1.514;2023-04-25T09:59:28;3.20;;;0.88;;
47958;SDS011;33718;50.910;-1.514;2023-04-25T10:01:31;5.57;;;1.30;;
47958;SDS011;33718;50.910;-1.514;2023-04-25T10:03:34;6.70;;;0.93;;
47958;SDS011;33718;50.910;-1.514;2023-04-25T10:05:36;3.13;;;1.27;;
47958;SDS011;33718;50.910;-1.514;2023-04-25T10:07:41;4.85;;;1.00;;
47958;SDS011;33718;50.910;-1.514;2023-04-25T10:09:43;4.78;;;1.65;;
47958;SDS011;33718;50.910;-1.514;2023-04-25T10:11:47;3.95;;;0.70;;
47958;SDS011;33718;50.910;-1.514;2023-04-25T10:13:54;2.38;;;1.10;;
47958;SDS011;33718;50.910;-1.514;2023-04-25T10:16:00;3.42;;;1.10;;
47958;SDS011;33718;50.910;-1.514;2023-04-25T10:18:05;3.35;;;1.42;;
47958;SDS011;33718;50.910;-1.514;2023-04-25T10:20:10;2.63;;;0.77;;
47958;SDS011;33718;50.910;-1.514;2023-04-25T10:22:20;1.25;;;0.73;;
47958;SDS011;33718;50.910;-1.514;2023-04-25T10:24:27;5.05;;;0.80;;
47958;SDS011;33718;50.910;-1.514;2023-04-25T10:26:32;3.13;;;0.88;;
47958;SDS011;33718;50.910;-1.514;2023-04-25T10:29:02;1.45;;;0.60;;
47958;SDS011;33718;50.910;-1.514;2023-04-25T10:31:09;3.15;;;1.30;;
47958;SDS011;33718;50.910;-1.514;2023-04-25T10:33:17;4.25;;;0.93;;
47958;SDS011;33718;50.910;-1.514;2023-04-25T10:35:38;4.20;;;1.05;;
47958;SDS011;33718;50.910;-1.514;2023-04-25T10:40:09;4.35;;;1.00;;
47958;SDS011;33718;50.910;-1.514;2023-04-25T10:42:14;3.58;;;0.70;;
47958;SDS011;33718;50.910;-1.514;2023-04-25T10:44:34;2.78;;;1.45;;
47958;SDS011;33718;50.910;-1.514;2023-04-25T10:46:38;1.83;;;0.80;;
47958;SDS011;33718;50.910;-1.514;2023-04-25T10:48:51;5.53;;;1.05;;
47958;SDS011;33718;50.910;-1.514;2023-04-25T10:51:08;1.75;;;0.73;;
47958;SDS011;33718;50.910;-1.514;2023-04-25T10:53:14;5.45;;;0.98;;
47958;SDS011;33718;50.910;-1.514;2023-04-25T10:55:15;4.07;;;1.23;;
47958;SDS011;33718;50.910;-1.514;2023-04-25T10:59:39;4.18;;;0.95;;
47958;SDS011;33718;50.910;-1.514;2023-04-25T11:01:45;5.38;;;1.00;;
47958;SDS011;33718;50.910;-1.514;2023-04-25T11:03:56;9.63;;;1.30;;
47958;SDS011;33718;50.910;-1.514;2023-04-25T11:06:01;4.75;;;1.50;;
47958;SDS011;33718;50.910;-1.514;2023-04-25T11:08:12;5.30;;;1.30;;
47958;SDS011;33718;50.910;-1.514;2023-04-25T11:10:15;5.18;;;1.30;;
47958;SDS011;33718;50.910;-1.514;2023-04-25T11:12:17;3.33;;;0.98;;
47958;SDS011;33718;50.910;-1.514;2023-04-25T11:14:37;2.38;;;1.00;;
47958;SDS011;33718;50.910;-1.514;2023-04-25T11:16:44;2.17;;;1.00;;
47958;SDS011;33718;50.910;-1.514;2023-04-25T11:18:46;4.15;;;1.45;;
47958;SDS011;33718;50.910;-1.514;2023-04-25T11:20:47;2.38;;;1.17;;
47958;SDS011;33718;50.910;-1.514;2023-04-25T11:22:49;6.10;;;1.30;;
47958;SDS011;33718;50.910;-1.514;2023-04-25T11:27:00;2.63;;;1.58;;
47958;SDS011;33718;50.910;-1.514;2023-04-25T11:29:06;4.80;;;1.08;;
47958;SDS011;33718;50.910;-1.514;2023-04-25T11:31:08;3.17;;;1.15;;
47958;SDS011;33718;50.910;-1.514;2023-04-25T11:33:13;2.83;;;1.30;;
47958;SDS011;33718;50.910;-1.514;2023-04-25T11:35:16;6.18;;;1.60;;
47958;SDS011;33718;50.910;-1.514;2023-04-25T11:37:17;5.28;;;0.98;;
47958;SDS011;33718;50.910;-1.514;2023-04-25T11:39:19;6.05;;;1.10;;
47958;SDS011;33718;50.910;-1.514;2023-04-25T11:41:21;6.25;;;1.30;;
47958;SDS011;33718;50.910;-1.514;2023-04-25T11:43:26;6.15;;;1.00;;
47958;SDS011;33718;50.910;-1.514;2023-04-25T11:45:27;4.45;;;1.40;;
47958;SDS011;33718;50.910;-1.514;2023-04-25T11:47:30;3.92;;;1.00;;
47958;SDS011;33718;50.910;-1.514;2023-04-25T11:49:34;4.30;;;1.17;;
47958;SDS011;33718;50.910;-1.514;2023-04-25T11:51:42;4.78;;;1.08;;
47958;SDS011;33718;50.910;-1.514;2023-04-25T11:53:44;5.75;;;1.50;;
47958;SDS011;33718;50.910;-1.514;2023-04-25T11:55:46;3.65;;;1.13;;
47958;SDS011;33718;50.910;-1.514;2023-04-25T11:57:48;7.05;;;1.15;;
47958;SDS011;33718;50.910;-1.514;2023-04-25T11:59:53;2.53;;;1.40;;
47958;SDS011;33718;50.910;-1.514;2023-04-25T12:01:56;2.53;;;1.05;;
47958;SDS011;33718;50.910;-1.514;2023-04-25T12:06:44;1.88;;;0.82;;
47958;SDS011;33718;50.910;-1.514;2023-04-25T12:09:01;2.72;;;1.30;;
47958;SDS011;33718;50.910;-1.514;2023-04-25T12:11:06;3.95;;;1.63;;
47958;SDS011;33718;50.910;-1.514;2023-04-25T12:13:24;4.55;;;1.23;;
47958;SDS011;33718;50.910;-1.514;2023-04-25T12:15:28;3.00;;;1.70;;
47958;SDS011;33718;50.910;-1.514;2023-04-25T12:17:34;3.53;;;1.70;;
47958;SDS011;33718;50.910;-1.514;2023-04-25T12:19:38;3.92;;;2.20;;
47958;SDS011;33718;50.910;-1.514;2023-04-25T12:21:43;3.15;;;1.45;;
47958;SDS011;33718;50.910;-1.514;2023-04-25T12:24:24;3.92;;;1.83;;
47958;SDS011;33718;50.910;-1.514;2023-04-25T12:26:45;5.50;;;2.25;;
47958;SDS011;33718;50.910;-1.514;2023-04-25T12:28:49;3.08;;;1.67;;
47958;SDS011;33718;50.910;-1.514;2023-04-25T12:31:03;5.55;;;1.95;;
47958;SDS011;33718;50.910;-1.514;2023-04-25T12:33:10;5.60;;;1.45;;
47958;SDS011;33718;50.910;-1.514;2023-04-25T12:35:17;9.65;;;2.03;;
47958;SDS011;33718;50.910;-1.514;2023-04-25T12:37:21;7.35;;;1.55;;
47958;SDS011;33718;50.910;-1.514;2023-04-25T12:39:25;6.38;;;1.65;;
47958;SDS011;33718;50.910;-1.514;2023-04-25T12:41:28;7.18;;;1.75;;
47958;SDS011;33718;50.910;-1.514;2023-04-25T12:43:30;3.97;;;1.95;;
47958;SDS011;33718;50.910;-1.514;2023-04-25T12:45:34;5.45;;;1.58;;
47958;SDS011;33718;50.910;-1.514;2023-04-25T12:47:36;3.30;;;1.42;;
47958;SDS011;33718;50.910;-1.514;2023-04-25T12:49:40;3.25;;;1.50;;
47958;SDS011;33718;50.910;-1.514;2023-04-25T12:51:42;4.43;;;1.55;;